createdAt,value
2022-12-24T00:01:35.269Z,1.37
2022-12-24T00:04:04.393Z,2.67
2022-12-24T00:06:34.160Z,1.13
2022-12-24T00:09:04.315Z,0.70
2022-12-24T00:11:32.427Z,0.93
2022-12-24T00:14:00.706Z,1.00
2022-12-24T00:16:29.739Z,1.40
2022-12-24T00:18:58.295Z,2.07
2022-12-24T00:21:26.446Z,3.13
2022-12-24T00:23:54.816Z,0.83
2022-12-24T00:26:24.316Z,2.00
2022-12-24T00:28:52.475Z,1.07
2022-12-24T00:31:21.386Z,3.60
2022-12-24T00:33:49.683Z,3.23
2022-12-24T00:36:18.647Z,1.60
2022-12-24T00:38:47.314Z,1.47
2022-12-24T00:41:26.164Z,3.13
2022-12-24T00:43:58.169Z,3.97
2022-12-24T00:46:27.296Z,2.43
2022-12-24T00:48:55.776Z,2.50
2022-12-24T00:51:24.836Z,1.87
2022-12-24T00:53:54.030Z,5.13
2022-12-24T00:56:22.363Z,2.43
2022-12-24T00:58:50.804Z,2.77
2022-12-24T01:01:21.017Z,3.07
2022-12-24T01:03:49.641Z,2.17
2022-12-24T01:06:20.133Z,1.17
2022-12-24T01:08:51.831Z,1.80
2022-12-24T01:11:20.314Z,1.37
2022-12-24T01:13:48.465Z,0.83
2022-12-24T01:16:18.493Z,1.67
2022-12-24T01:18:51.819Z,1.20
2022-12-24T01:21:20.988Z,4.70
2022-12-24T01:23:49.017Z,0.90
2022-12-24T01:26:17.165Z,2.27
2022-12-24T01:28:45.237Z,2.07
2022-12-24T01:31:16.193Z,1.87
2022-12-24T01:33:45.164Z,1.97
2022-12-24T01:36:15.174Z,1.17
2022-12-24T01:38:43.411Z,2.93
2022-12-24T01:41:35.458Z,2.30
2022-12-24T01:44:31.571Z,1.20
2022-12-24T01:47:09.278Z,1.30
2022-12-24T01:49:40.530Z,2.70
2022-12-24T01:52:13.810Z,5.03
2022-12-24T01:54:45.263Z,2.40
2022-12-24T01:57:19.679Z,1.77
2022-12-24T01:59:52.877Z,1.30
2022-12-24T02:02:21.791Z,1.47
2022-12-24T02:04:55.909Z,3.30
2022-12-24T02:07:26.035Z,1.23
2022-12-24T02:09:57.674Z,2.90
2022-12-24T02:12:27.421Z,2.00
2022-12-24T02:14:55.999Z,2.90
2022-12-24T02:17:32.618Z,2.83
2022-12-24T02:20:32.644Z,1.73
2022-12-24T02:23:17.050Z,1.43
2022-12-24T02:26:08.124Z,2.10
2022-12-24T02:28:57.819Z,2.23
2022-12-24T02:31:35.349Z,1.40
2022-12-24T02:34:09.106Z,2.27
2022-12-24T02:36:43.402Z,1.40
2022-12-24T02:39:15.339Z,2.43
2022-12-24T02:42:07.650Z,2.53
2022-12-24T02:44:41.313Z,3.40
2022-12-24T02:47:12.362Z,2.17
2022-12-24T02:49:40.505Z,2.37
2022-12-24T02:52:08.516Z,1.13
2022-12-24T02:54:36.601Z,2.23
2022-12-24T02:57:17.388Z,1.60
2022-12-24T03:00:05.695Z,2.23
2022-12-24T03:02:52.110Z,1.43
2022-12-24T03:05:30.691Z,1.50
2022-12-24T03:08:05.541Z,3.17
2022-12-24T03:10:42.198Z,3.03
2022-12-24T03:13:15.611Z,3.43
2022-12-24T03:15:44.738Z,1.30
2022-12-24T03:18:17.353Z,2.20
2022-12-24T03:20:48.666Z,2.43
2022-12-24T03:23:17.053Z,1.97
2022-12-24T03:25:46.659Z,2.83
2022-12-24T03:28:17.642Z,2.13
2022-12-24T03:30:48.699Z,2.93
2022-12-24T03:33:19.027Z,2.50
2022-12-24T03:35:47.304Z,2.10
2022-12-24T03:38:15.336Z,4.20
2022-12-24T03:40:43.823Z,3.03
2022-12-24T03:43:11.995Z,4.13
2022-12-24T03:45:40.520Z,2.80
2022-12-24T03:48:08.813Z,4.40
2022-12-24T03:50:39.635Z,2.13
2022-12-24T03:53:08.009Z,1.43
2022-12-24T03:55:36.030Z,3.70
2022-12-24T03:58:06.115Z,3.77
2022-12-24T04:00:34.171Z,4.20
2022-12-24T04:03:02.290Z,3.17
2022-12-24T04:05:34.637Z,5.47
2022-12-24T04:08:04.093Z,5.07
2022-12-24T04:10:32.161Z,3.37
2022-12-24T04:13:00.481Z,3.27
2022-12-24T04:15:28.504Z,4.10
2022-12-24T04:17:58.051Z,2.83
2022-12-24T04:20:26.146Z,3.13
2022-12-24T04:22:54.985Z,1.73
2022-12-24T04:25:24.493Z,5.90
2022-12-24T04:27:52.589Z,2.43
2022-12-24T04:30:20.861Z,3.77
2022-12-24T04:32:48.891Z,2.43
2022-12-24T04:35:16.992Z,4.23
2022-12-24T04:37:45.027Z,5.07
2022-12-24T04:40:13.388Z,3.87
2022-12-24T04:42:43.329Z,3.37
2022-12-24T04:45:12.016Z,3.63
2022-12-24T04:47:40.061Z,3.57
2022-12-24T04:50:10.453Z,4.43
2022-12-24T04:52:38.501Z,4.50
2022-12-24T04:55:07.564Z,4.97
2022-12-24T04:57:37.830Z,3.97
2022-12-24T05:00:08.811Z,3.77
2022-12-24T05:02:37.313Z,3.67
2022-12-24T05:05:06.129Z,5.07
2022-12-24T05:07:35.962Z,2.00
2022-12-24T05:10:04.011Z,3.23
2022-12-24T05:12:32.260Z,1.83
2022-12-24T05:15:00.288Z,1.70
2022-12-24T05:17:32.714Z,2.33
2022-12-24T05:20:00.899Z,3.33
2022-12-24T05:22:46.291Z,3.50
2022-12-24T05:25:31.798Z,3.30
2022-12-24T05:27:59.882Z,6.20
2022-12-24T05:30:28.081Z,3.07
2022-12-24T05:32:57.549Z,4.67
2022-12-24T05:35:25.607Z,4.87
2022-12-24T05:37:53.584Z,4.80
2022-12-24T05:40:21.647Z,5.77
2022-12-24T05:42:51.483Z,6.70
2022-12-24T05:45:19.578Z,3.43
2022-12-24T05:47:47.636Z,3.63
2022-12-24T05:50:17.122Z,6.90
2022-12-24T05:52:45.170Z,5.83
2022-12-24T05:55:15.784Z,4.97
2022-12-24T05:57:44.516Z,4.37
2022-12-24T06:00:13.168Z,3.60
2022-12-24T06:02:41.332Z,3.80
2022-12-24T06:05:10.138Z,3.80
2022-12-24T06:07:40.164Z,4.43
2022-12-24T06:10:09.923Z,4.67
2022-12-24T06:12:37.960Z,3.87
2022-12-24T06:15:07.143Z,1.67
2022-12-24T06:17:35.199Z,2.20
2022-12-24T06:20:04.273Z,3.27
2022-12-24T06:22:32.305Z,2.47
2022-12-24T06:25:01.837Z,3.57
2022-12-24T06:27:29.953Z,2.30
2022-12-24T06:29:57.975Z,2.43
2022-12-24T06:32:27.835Z,3.80
2022-12-24T06:34:55.868Z,6.20
2022-12-24T06:37:23.992Z,3.20
2022-12-24T06:39:52.128Z,5.50
2022-12-24T06:42:21.620Z,5.27
2022-12-24T06:44:49.813Z,6.60
2022-12-24T06:47:17.899Z,2.67
2022-12-24T06:49:45.947Z,5.10
2022-12-24T06:52:14.025Z,4.00
2022-12-24T06:54:42.070Z,4.10
2022-12-24T06:57:10.608Z,4.10
2022-12-24T06:59:40.041Z,4.53
2022-12-24T07:02:08.298Z,5.90
2022-12-24T07:04:36.382Z,4.80
2022-12-24T07:07:04.413Z,3.03
2022-12-24T07:09:33.572Z,3.20
2022-12-24T07:12:01.618Z,3.60
2022-12-24T07:14:29.663Z,4.27
2022-12-24T07:16:59.568Z,4.27
2022-12-24T07:19:27.759Z,6.40
2022-12-24T07:21:56.005Z,7.10
2022-12-24T07:24:24.049Z,2.47
2022-12-24T07:26:52.106Z,4.03
2022-12-24T07:29:20.631Z,3.63
2022-12-24T07:31:48.905Z,5.60
2022-12-24T07:34:18.639Z,3.77
2022-12-24T07:36:46.734Z,7.10
2022-12-24T07:39:14.894Z,5.00
2022-12-24T07:41:43.472Z,5.10
2022-12-24T07:44:13.925Z,3.00
2022-12-24T07:46:42.443Z,3.13
2022-12-24T07:49:10.794Z,4.50
2022-12-24T07:51:40.228Z,4.97
2022-12-24T07:54:08.281Z,4.90
2022-12-24T07:56:36.671Z,4.77
2022-12-24T07:59:05.280Z,7.23
2022-12-24T08:01:33.342Z,6.03
2022-12-24T08:04:01.569Z,6.37
2022-12-24T08:06:29.696Z,5.27
2022-12-24T08:08:59.383Z,5.27
2022-12-24T08:11:28.182Z,7.30
2022-12-24T08:13:56.223Z,8.13
2022-12-24T08:16:24.522Z,5.13
2022-12-24T08:18:54.996Z,2.47
2022-12-24T08:21:23.049Z,2.53
2022-12-24T08:23:51.610Z,5.40
2022-12-24T08:26:21.044Z,1.47
2022-12-24T08:28:49.106Z,2.40
2022-12-24T08:31:17.163Z,1.63
2022-12-24T08:33:45.236Z,1.93
2022-12-24T08:36:14.561Z,2.90
2022-12-24T08:38:42.578Z,2.73
2022-12-24T08:41:10.578Z,3.13
2022-12-24T08:43:40.005Z,2.67
2022-12-24T08:46:08.276Z,1.40
2022-12-24T08:48:38.293Z,2.03
2022-12-24T08:51:09.625Z,2.20
2022-12-24T08:53:38.200Z,1.20
2022-12-24T08:56:08.504Z,3.63
2022-12-24T08:58:36.754Z,3.07
2022-12-24T09:01:14.992Z,2.27
2022-12-24T09:03:43.667Z,3.57
2022-12-24T09:06:12.223Z,2.47
2022-12-24T09:08:40.358Z,3.47
2022-12-24T09:11:10.428Z,4.37
2022-12-24T09:13:39.299Z,2.97
2022-12-24T09:16:09.742Z,3.50
2022-12-24T09:18:38.129Z,6.37
2022-12-24T09:21:09.184Z,3.47
2022-12-24T09:23:39.665Z,2.97
2022-12-24T09:26:08.297Z,5.33
2022-12-24T09:28:36.710Z,3.10
2022-12-24T09:31:06.274Z,4.50
2022-12-24T09:33:38.004Z,3.90
2022-12-24T09:36:09.395Z,3.93
2022-12-24T09:38:38.826Z,2.80
2022-12-24T09:41:15.056Z,3.60
2022-12-24T09:43:48.737Z,4.47
2022-12-24T09:46:24.301Z,2.23
2022-12-24T09:48:58.882Z,3.20
2022-12-24T09:51:33.270Z,3.37
2022-12-24T09:54:06.112Z,3.53
2022-12-24T09:56:39.805Z,3.23
2022-12-24T09:59:12.744Z,2.80
2022-12-24T10:01:40.879Z,3.23
2022-12-24T10:04:14.259Z,2.90
2022-12-24T10:06:52.343Z,2.83
2022-12-24T10:09:26.978Z,4.60
2022-12-24T10:12:03.662Z,3.30
2022-12-24T10:14:43.549Z,2.77
2022-12-24T10:17:36.609Z,2.67
2022-12-24T10:20:26.651Z,4.03
2022-12-24T10:23:02.313Z,2.60
2022-12-24T10:25:39.256Z,3.03
2022-12-24T10:28:16.403Z,2.33
2022-12-24T10:30:46.479Z,3.70
2022-12-24T10:33:20.302Z,4.37
2022-12-24T10:35:56.068Z,2.77
2022-12-24T10:38:24.293Z,2.30
2022-12-24T10:40:54.417Z,2.40
2022-12-24T10:43:25.029Z,2.90
2022-12-24T10:45:56.399Z,3.13
2022-12-24T10:48:30.203Z,3.23
2022-12-24T10:51:03.741Z,2.30
2022-12-24T10:53:44.195Z,3.70
2022-12-24T10:56:16.585Z,1.77
2022-12-24T10:58:46.979Z,4.60
2022-12-24T11:01:17.147Z,3.03
2022-12-24T11:03:45.457Z,3.53
2022-12-24T11:06:21.047Z,2.53
2022-12-24T11:08:50.343Z,4.33
2022-12-24T11:11:20.399Z,2.30
2022-12-24T11:13:56.522Z,4.10
2022-12-24T11:16:28.735Z,3.00
2022-12-24T11:19:01.365Z,1.77
2022-12-24T11:21:33.314Z,2.20
2022-12-24T11:24:07.905Z,4.47
2022-12-24T11:26:36.758Z,3.60
2022-12-24T11:29:08.547Z,2.27
2022-12-24T11:31:37.603Z,2.27
2022-12-24T11:34:23.586Z,2.63
2022-12-24T11:36:55.654Z,2.40
2022-12-24T11:39:26.588Z,3.53
2022-12-24T11:41:55.541Z,2.53
2022-12-24T11:44:27.689Z,2.80
2022-12-24T11:46:57.672Z,6.07
2022-12-24T11:49:28.519Z,4.63
2022-12-24T11:52:19.481Z,2.73
2022-12-24T11:54:57.506Z,4.13
2022-12-24T11:57:30.211Z,2.57
2022-12-24T12:00:00.667Z,4.67
2022-12-24T12:02:33.171Z,2.93
2022-12-24T12:05:06.550Z,3.13
2022-12-24T12:07:37.916Z,5.17
2022-12-24T12:10:12.148Z,4.57
2022-12-24T12:12:44.428Z,3.70
2022-12-24T12:15:15.336Z,5.43
2022-12-24T12:17:50.289Z,3.10
2022-12-24T12:20:25.268Z,3.63
2022-12-24T12:23:01.367Z,2.90
2022-12-24T12:25:35.199Z,4.57
2022-12-24T12:28:05.025Z,4.07
2022-12-24T12:30:34.424Z,5.10
2022-12-24T12:33:12.472Z,3.60
2022-12-24T12:35:43.471Z,5.67
2022-12-24T12:38:17.093Z,4.33
2022-12-24T12:41:02.212Z,5.10
2022-12-24T12:43:43.949Z,5.37
2022-12-24T12:46:22.058Z,3.43
2022-12-24T12:49:14.008Z,4.83
2022-12-24T12:51:51.604Z,4.50
2022-12-24T12:54:42.048Z,5.67
2022-12-24T12:57:15.863Z,3.63
2022-12-24T12:59:49.153Z,4.67
2022-12-24T13:02:40.316Z,3.60
2022-12-24T13:05:44.479Z,5.30
2022-12-24T13:08:35.269Z,6.43
2022-12-24T13:11:33.114Z,4.23
2022-12-24T13:14:27.557Z,4.33
2022-12-24T13:17:34.438Z,3.30
2022-12-24T13:20:18.890Z,4.77
2022-12-24T13:22:57.523Z,3.50
2022-12-24T13:25:31.390Z,3.80
2022-12-24T13:28:16.881Z,6.53
2022-12-24T13:30:48.201Z,4.87
2022-12-24T13:33:49.635Z,4.00
2022-12-24T13:36:19.774Z,3.00
2022-12-24T13:38:49.376Z,4.30
2022-12-24T13:41:50.818Z,3.63
2022-12-24T13:44:32.715Z,4.20
2022-12-24T13:47:30.174Z,3.23
2022-12-24T13:50:22.117Z,4.03
2022-12-24T13:52:53.959Z,9.97
2022-12-24T13:55:22.635Z,20.67
2022-12-24T13:57:59.956Z,5.77
2022-12-24T14:00:54.364Z,5.83
2022-12-24T14:03:30.516Z,3.43
2022-12-24T14:06:01.736Z,3.90
2022-12-24T14:08:38.558Z,5.60
2022-12-24T14:11:13.027Z,4.50
2022-12-24T14:14:15.216Z,2.67
2022-12-24T14:16:49.076Z,4.07
2022-12-24T14:19:23.898Z,3.43
2022-12-24T14:21:57.992Z,3.20
2022-12-24T14:24:29.469Z,5.27
2022-12-24T14:27:02.029Z,3.57
2022-12-24T14:29:33.685Z,6.20
2022-12-24T14:32:04.661Z,6.73
2022-12-24T14:34:32.932Z,5.10
2022-12-24T14:37:05.409Z,7.23
2022-12-24T14:39:36.525Z,5.80
2022-12-24T14:42:18.457Z,4.60
2022-12-24T14:44:57.001Z,4.07
2022-12-24T14:47:35.599Z,5.13
2022-12-24T14:50:24.223Z,2.93
2022-12-24T14:53:07.230Z,3.77
2022-12-24T14:55:42.667Z,4.17
2022-12-24T14:58:21.920Z,4.37
2022-12-24T15:00:51.129Z,4.00
2022-12-24T15:03:23.077Z,4.57
2022-12-24T15:05:55.198Z,2.07
2022-12-24T15:08:29.606Z,3.27
2022-12-24T15:11:02.999Z,3.43
2022-12-24T15:13:37.081Z,4.37
2022-12-24T15:16:07.462Z,2.37
2022-12-24T15:18:40.431Z,5.03
2022-12-24T15:21:17.743Z,6.23
2022-12-24T15:23:49.652Z,4.47
2022-12-24T15:26:23.874Z,7.37
2022-12-24T15:28:58.306Z,4.97
2022-12-24T15:31:32.224Z,4.30
2022-12-24T15:34:02.358Z,4.20
2022-12-24T15:36:33.294Z,5.40
2022-12-24T15:39:04.878Z,2.17
2022-12-24T15:41:59.909Z,2.97
2022-12-24T15:44:29.194Z,4.57
2022-12-24T15:47:01.076Z,5.13
2022-12-24T15:49:32.185Z,4.17
2022-12-24T15:52:09.283Z,5.10
2022-12-24T15:54:37.849Z,5.17
2022-12-24T15:57:21.886Z,5.43
2022-12-24T15:59:53.673Z,5.80
2022-12-24T16:02:41.808Z,4.87
2022-12-24T16:05:29.578Z,6.10
2022-12-24T16:08:08.353Z,4.20
2022-12-24T16:10:40.056Z,5.33
2022-12-24T16:13:19.581Z,3.87
2022-12-24T16:15:51.594Z,5.33
2022-12-24T16:18:23.577Z,6.77
2022-12-24T16:20:54.627Z,7.17
2022-12-24T16:23:24.664Z,6.70
2022-12-24T16:25:53.888Z,6.23
2022-12-24T16:28:23.315Z,7.57
2022-12-24T16:30:51.779Z,5.43
2022-12-24T16:33:21.678Z,5.53
2022-12-24T16:35:50.426Z,5.53
2022-12-24T16:38:19.881Z,5.33
2022-12-24T16:40:48.322Z,6.90
2022-12-24T16:43:34.023Z,4.40
2022-12-24T16:46:04.329Z,7.37
2022-12-24T16:48:36.227Z,6.20
2022-12-24T16:51:04.456Z,10.80
2022-12-24T16:53:33.926Z,10.53
2022-12-24T16:56:02.722Z,7.37
2022-12-24T16:58:31.340Z,4.67
2022-12-24T17:00:59.865Z,4.83
2022-12-24T17:03:27.998Z,5.37
2022-12-24T17:05:56.134Z,2.47
2022-12-24T17:08:25.093Z,5.53
2022-12-24T17:10:54.616Z,4.37
2022-12-24T17:13:22.673Z,4.90
2022-12-24T17:15:50.781Z,4.70
2022-12-24T17:18:18.798Z,5.73
2022-12-24T17:20:46.832Z,4.33
2022-12-24T17:23:15.048Z,5.87
2022-12-24T17:25:43.067Z,6.07
2022-12-24T17:28:12.671Z,6.07
2022-12-24T17:30:41.289Z,4.00
2022-12-24T17:33:14.349Z,7.60
2022-12-24T17:35:44.363Z,4.33
2022-12-24T17:38:12.411Z,5.60
2022-12-24T17:40:40.566Z,6.67
2022-12-24T17:43:08.645Z,5.70
2022-12-24T17:45:41.377Z,11.00
2022-12-24T17:48:09.913Z,6.27
2022-12-24T17:50:40.309Z,5.70
2022-12-24T17:53:08.508Z,5.13
2022-12-24T17:55:41.137Z,9.33
2022-12-24T17:58:09.240Z,14.70
2022-12-24T18:00:39.507Z,23.03
2022-12-24T18:03:07.651Z,17.17
2022-12-24T18:05:36.283Z,17.60
2022-12-24T18:08:04.581Z,12.73
2022-12-24T18:10:32.916Z,20.73
2022-12-24T18:13:01.060Z,27.27
2022-12-24T18:15:29.154Z,21.90
2022-12-24T18:17:59.320Z,30.77
2022-12-24T18:20:27.602Z,59.10
2022-12-24T18:22:56.201Z,34.60
2022-12-24T18:25:24.469Z,87.90
2022-12-24T18:27:53.209Z,15.07
2022-12-24T18:30:27.420Z,16.83
2022-12-24T18:32:56.418Z,20.50
2022-12-24T18:35:25.905Z,17.30
2022-12-24T18:37:53.956Z,7.20
2022-12-24T18:40:22.009Z,11.03
2022-12-24T18:42:50.186Z,22.50
2022-12-24T18:45:21.593Z,19.33
2022-12-24T18:47:49.633Z,15.40
2022-12-24T18:50:17.848Z,13.20
2022-12-24T18:52:47.426Z,15.80
2022-12-24T18:55:15.480Z,10.03
2022-12-24T18:57:43.823Z,10.43
2022-12-24T19:00:13.190Z,26.87
2022-12-24T19:02:41.432Z,13.40
2022-12-24T19:05:09.777Z,14.00
2022-12-24T19:07:37.867Z,8.57
2022-12-24T19:10:14.452Z,7.67
2022-12-24T19:12:42.481Z,7.50
2022-12-24T19:15:11.505Z,6.90
2022-12-24T19:17:43.088Z,10.03
2022-12-24T19:20:11.736Z,7.93
2022-12-24T19:22:40.105Z,10.70
2022-12-24T19:25:11.542Z,8.57
2022-12-24T19:27:39.799Z,8.43
2022-12-24T19:30:09.191Z,9.50
2022-12-24T19:32:37.297Z,9.40
2022-12-24T19:35:06.308Z,10.70
2022-12-24T19:37:34.376Z,6.00
2022-12-24T19:40:02.477Z,6.50
2022-12-24T19:42:32.690Z,7.70
2022-12-24T19:45:00.807Z,8.57
2022-12-24T19:47:32.457Z,9.03
2022-12-24T19:50:00.747Z,8.00
2022-12-24T19:52:28.834Z,13.17
2022-12-24T19:54:56.963Z,8.20
2022-12-24T19:57:25.082Z,8.40
2022-12-24T19:59:54.719Z,7.53
2022-12-24T20:02:22.985Z,7.90
2022-12-24T20:04:52.200Z,6.83
2022-12-24T20:07:20.272Z,8.03
2022-12-24T20:09:48.463Z,7.50
2022-12-24T20:12:20.081Z,5.97
2022-12-24T20:14:48.241Z,6.23
2022-12-24T20:17:17.770Z,6.90
2022-12-24T20:19:45.806Z,5.57
2022-12-24T20:22:13.987Z,5.93
2022-12-24T20:24:42.518Z,5.67
2022-12-24T20:27:10.574Z,6.07
2022-12-24T20:29:38.726Z,9.63
2022-12-24T20:32:07.301Z,9.13
2022-12-24T20:34:37.172Z,7.17
2022-12-24T20:37:05.726Z,7.83
2022-12-24T20:39:34.185Z,11.63
2022-12-24T20:42:03.501Z,7.63
2022-12-24T20:44:32.688Z,10.37
2022-12-24T20:47:00.779Z,9.47
2022-12-24T20:49:29.385Z,8.97
2022-12-24T20:52:01.017Z,8.60
2022-12-24T20:54:29.232Z,7.60
2022-12-24T20:56:58.736Z,7.47
2022-12-24T20:59:27.300Z,6.33
2022-12-24T21:01:56.092Z,8.93
2022-12-24T21:04:25.628Z,7.17
2022-12-24T21:06:53.857Z,8.73
2022-12-24T21:09:24.469Z,7.17
2022-12-24T21:12:10.201Z,6.97
2022-12-24T21:14:38.334Z,9.47
2022-12-24T21:17:10.551Z,6.33
2022-12-24T21:19:41.765Z,7.00
2022-12-24T21:22:09.918Z,7.03
2022-12-24T21:24:40.437Z,6.30
2022-12-24T21:27:08.548Z,7.33
2022-12-24T21:29:36.709Z,12.07
2022-12-24T21:32:04.873Z,7.53
2022-12-24T21:34:32.936Z,9.23
2022-12-24T21:37:01.371Z,7.87
2022-12-24T21:39:29.405Z,8.27
2022-12-24T21:41:58.959Z,8.47
2022-12-24T21:44:27.046Z,7.60
2022-12-24T21:46:55.165Z,6.30
2022-12-24T21:49:40.844Z,11.40
2022-12-24T21:52:09.160Z,7.60
2022-12-24T21:54:36.415Z,7.70
2022-12-24T21:57:25.089Z,7.17
2022-12-24T21:59:54.611Z,8.80
2022-12-24T22:02:26.849Z,8.70
2022-12-24T22:04:55.730Z,8.33
2022-12-24T22:07:43.427Z,7.53
2022-12-24T22:10:31.274Z,9.83
2022-12-24T22:13:06.197Z,9.70
2022-12-24T22:15:34.654Z,10.07
2022-12-24T22:18:02.789Z,10.20
2022-12-24T22:20:30.929Z,9.37
2022-12-24T22:22:59.383Z,9.93
2022-12-24T22:25:29.406Z,10.20
2022-12-24T22:27:57.585Z,8.13
2022-12-24T22:30:27.324Z,9.30
2022-12-24T22:32:55.435Z,6.47
2022-12-24T22:35:23.951Z,7.43
2022-12-24T22:37:57.721Z,8.97
2022-12-24T22:40:28.094Z,6.07
2022-12-24T22:42:56.378Z,5.17
2022-12-24T22:45:25.005Z,7.27
2022-12-24T22:47:54.543Z,6.90
2022-12-24T22:50:22.683Z,8.47
2022-12-24T22:52:50.781Z,6.47
2022-12-24T22:55:19.013Z,6.10
2022-12-24T22:57:47.419Z,6.97
2022-12-24T23:00:36.680Z,6.10
2022-12-24T23:03:06.984Z,7.33
2022-12-24T23:05:35.387Z,5.77
2022-12-24T23:08:04.349Z,5.63
2022-12-24T23:10:32.936Z,6.40
2022-12-24T23:13:18.525Z,5.37
2022-12-24T23:15:46.673Z,7.37
2022-12-24T23:18:17.277Z,4.93
2022-12-24T23:20:46.358Z,5.17
2022-12-24T23:23:14.851Z,5.70
2022-12-24T23:25:42.960Z,6.43
2022-12-24T23:28:11.072Z,4.73
2022-12-24T23:30:39.515Z,4.50
2022-12-24T23:33:07.617Z,5.73
2022-12-24T23:35:37.038Z,6.57
2022-12-24T23:38:05.064Z,4.83
2022-12-24T23:40:33.133Z,5.37
2022-12-24T23:43:01.757Z,6.67
2022-12-24T23:45:29.844Z,7.37
2022-12-24T23:47:58.071Z,6.23
2022-12-24T23:50:26.379Z,5.17
2022-12-24T23:52:55.732Z,5.23
2022-12-24T23:55:24.209Z,5.70
2022-12-24T23:57:52.473Z,4.00
